Time;durP1;ratioP1;P1;durP2;ratioP2;P2;SDS_P1;SDS_P2;PMS_P1;PMS_P2;Temp;Humidity;BMP_temperature;BMP_pressure;BME280_temperature;BME280_humidity;BME280_pressure;Samples;Min_cycle;Max_cycle;Signal;HPM_P1;HPM_P2
2022/05/07 00:00:38;;;;;;;42.83;27.15;;;;;;;;;;5050470;28;20037;-78
2022/05/07 00:03:04;;;;;;;39.58;26.15;;;;;;;;;;5050080;28;20025;-78
2022/05/07 00:05:31;;;;;;;44.38;27.38;;;;;;;;;;5031615;28;20044;-78
2022/05/07 00:07:57;;;;;;;48.08;28.48;;;;;;;;;;5051981;28;20033;-77
2022/05/07 00:10:23;;;;;;;40.45;27.95;;;;;;;;;;5046393;28;20052;-78
2022/05/07 00:12:49;;;;;;;40.40;28.45;;;;;;;;;;5047745;28;20043;-79
2022/05/07 00:15:16;;;;;;;43.28;27.80;;;;;;;;;;5042062;28;20046;-78
2022/05/07 00:20:38;;;;;;;43.42;27.60;;;;;;;;;;5033680;28;20037;-77
2022/05/07 00:23:04;;;;;;;42.35;27.88;;;;;;;;;;5029997;28;20039;-78
2022/05/07 00:25:30;;;;;;;42.55;27.20;;;;;;;;;;5051622;28;20029;-78
2022/05/07 00:27:56;;;;;;;40.63;28.35;;;;;;;;;;5050398;28;20029;-78
2022/05/07 00:30:22;;;;;;;40.72;28.70;;;;;;;;;;5039600;28;20112;-78
2022/05/07 00:32:48;;;;;;;43.05;27.63;;;;;;;;;;5049427;28;20041;-78
2022/05/07 00:35:15;;;;;;;45.72;28.52;;;;;;;;;;5050792;28;20025;-79
2022/05/07 00:37:41;;;;;;;47.63;28.45;;;;;;;;;;5021908;28;20101;-78
2022/05/07 00:40:08;;;;;;;38.10;26.33;;;;;;;;;;5039830;28;20029;-78
2022/05/07 00:42:34;;;;;;;41.72;28.48;;;;;;;;;;5043361;28;20071;-78
2022/05/07 00:45:01;;;;;;;41.55;29.60;;;;;;;;;;5050231;28;20025;-78
2022/05/07 00:47:29;;;;;;;43.90;28.58;;;;;;;;;;5032326;28;20412;-78
2022/05/07 00:51:33;;;;;;;40.70;28.02;;;;;;;;;;5041281;28;20028;-81
2022/05/07 00:52:45;;;;;;;38.58;26.58;;;;;;;;;;5041724;28;20033;-78
2022/05/07 00:55:12;;;;;;;42.17;26.75;;;;;;;;;;5046338;28;20029;-79
2022/05/07 00:57:38;;;;;;;40.67;26.98;;;;;;;;;;5050103;28;20052;-79
2022/05/07 01:00:05;;;;;;;39.20;28.45;;;;;;;;;;5052164;28;20057;-79
2022/05/07 01:02:31;;;;;;;42.67;28.23;;;;;;;;;;5056300;28;20036;-79
2022/05/07 01:04:58;;;;;;;41.65;27.60;;;;;;;;;;5041061;28;20446;-78
2022/05/07 01:07:24;;;;;;;39.63;27.90;;;;;;;;;;5038137;28;20100;-78
2022/05/07 01:09:50;;;;;;;36.83;25.50;;;;;;;;;;5036931;28;20500;-80
2022/05/07 01:12:20;;;;;;;32.45;24.25;;;;;;;;;;5045252;28;20036;-79
2022/05/07 01:14:46;;;;;;;34.58;24.67;;;;;;;;;;5049244;28;20028;-79
2022/05/07 01:17:12;;;;;;;32.75;24.23;;;;;;;;;;5045842;28;20047;-79
2022/05/07 01:19:38;;;;;;;33.13;25.33;;;;;;;;;;5048281;28;20037;-78
2022/05/07 01:22:05;;;;;;;31.55;24.33;;;;;;;;;;5047169;28;20036;-79
2022/05/07 01:24:31;;;;;;;32.85;24.60;;;;;;;;;;5036856;28;20083;-79
2022/05/07 01:26:57;;;;;;;37.10;24.77;;;;;;;;;;5047964;28;20040;-78
2022/05/07 01:29:23;;;;;;;35.10;24.52;;;;;;;;;;5049410;28;20032;-78
2022/05/07 01:31:49;;;;;;;36.72;25.77;;;;;;;;;;5045980;28;20063;-79
2022/05/07 01:34:15;;;;;;;36.97;25.60;;;;;;;;;;5051155;28;20075;-78
2022/05/07 01:36:41;;;;;;;35.00;24.85;;;;;;;;;;5029958;28;20032;-79
2022/05/07 01:39:07;;;;;;;33.10;25.95;;;;;;;;;;5047970;28;20033;-78
2022/05/07 01:41:33;;;;;;;31.05;22.27;;;;;;;;;;5035494;28;20033;-78
2022/05/07 01:43:59;;;;;;;30.33;24.23;;;;;;;;;;5051869;28;20036;-78
2022/05/07 01:49:10;;;;;;;33.20;23.98;;;;;;;;;;5054033;28;20082;-78
2022/05/07 01:51:36;;;;;;;31.80;24.20;;;;;;;;;;5042942;28;20029;-79
2022/05/07 01:54:02;;;;;;;33.35;23.98;;;;;;;;;;5052191;28;20487;-78
2022/05/07 01:56:28;;;;;;;33.85;24.88;;;;;;;;;;5054627;28;20242;-78
2022/05/07 01:58:54;;;;;;;32.80;22.75;;;;;;;;;;5048658;28;20032;-78
2022/05/07 02:01:20;;;;;;;27.48;22.25;;;;;;;;;;5054578;28;20044;-79
2022/05/07 02:03:46;;;;;;;32.28;23.67;;;;;;;;;;5050749;28;20062;-78
2022/05/07 02:06:13;;;;;;;30.67;22.00;;;;;;;;;;5047166;28;20032;-78
2022/05/07 02:08:39;;;;;;;31.98;23.85;;;;;;;;;;5032853;28;20144;-78
2022/05/07 02:11:05;;;;;;;31.13;23.55;;;;;;;;;;5045444;28;20159;-78
2022/05/07 02:13:31;;;;;;;33.53;23.60;;;;;;;;;;5046998;28;20473;-77
2022/05/07 02:15:57;;;;;;;30.10;22.65;;;;;;;;;;5051736;28;20025;-77
2022/05/07 02:18:23;;;;;;;30.35;23.30;;;;;;;;;;5035124;28;20037;-74
2022/05/07 02:20:49;;;;;;;29.90;22.75;;;;;;;;;;5032937;28;20112;-77
2022/05/07 02:23:17;;;;;;;28.33;22.23;;;;;;;;;;5050588;28;20017;-76
2022/05/07 02:25:44;;;;;;;32.03;22.98;;;;;;;;;;5052772;28;20082;-78
2022/05/07 02:28:10;;;;;;;30.65;23.02;;;;;;;;;;5052873;28;20063;-77
2022/05/07 02:30:36;;;;;;;29.17;23.33;;;;;;;;;;5031010;28;20044;-76
2022/05/07 02:33:02;;;;;;;26.27;21.60;;;;;;;;;;5040706;28;20017;-77
2022/05/07 02:35:28;;;;;;;26.65;22.75;;;;;;;;;;5045041;28;20082;-77
2022/05/07 02:37:54;;;;;;;30.65;24.30;;;;;;;;;;5037422;28;20076;-76
2022/05/07 02:40:20;;;;;;;29.70;23.13;;;;;;;;;;5033904;28;20052;-77
2022/05/07 02:42:46;;;;;;;26.50;22.73;;;;;;;;;;5052221;28;20035;-76
2022/05/07 02:45:13;;;;;;;28.77;23.42;;;;;;;;;;5033644;28;20617;-77
2022/05/07 02:47:40;;;;;;;36.97;23.17;;;;;;;;;;5052673;28;20047;-76
2022/05/07 02:50:07;;;;;;;28.58;23.70;;;;;;;;;;5050966;28;20499;-75
2022/05/07 02:52:34;;;;;;;28.33;22.23;;;;;;;;;;5048797;28;20037;-75
2022/05/07 02:55:04;;;;;;;32.00;22.60;;;;;;;;;;5050380;28;20108;-76
2022/05/07 02:57:30;;;;;;;27.05;23.67;;;;;;;;;;5052609;28;20432;-76
2022/05/07 02:59:56;;;;;;;27.98;22.05;;;;;;;;;;5045317;28;20025;-78
2022/05/07 03:02:23;;;;;;;29.50;23.40;;;;;;;;;;5058183;28;20033;-76
2022/05/07 03:04:49;;;;;;;32.53;22.63;;;;;;;;;;5047831;28;20036;-74
2022/05/07 03:07:15;;;;;;;30.77;22.90;;;;;;;;;;5035926;28;20548;-75
2022/05/07 03:09:41;;;;;;;26.58;23.63;;;;;;;;;;5043485;28;20041;-74
2022/05/07 03:12:09;;;;;;;31.30;23.13;;;;;;;;;;5028318;28;20034;-79
2022/05/07 03:14:35;;;;;;;30.75;22.63;;;;;;;;;;5033531;28;20033;-81
2022/05/07 03:17:01;;;;;;;31.23;21.17;;;;;;;;;;5050553;28;20040;-77
2022/05/07 03:19:27;;;;;;;27.25;21.48;;;;;;;;;;5049549;28;20090;-77
2022/05/07 03:21:54;;;;;;;29.02;22.27;;;;;;;;;;5046847;28;20029;-76
2022/05/07 03:24:20;;;;;;;27.63;21.63;;;;;;;;;;5039191;28;20053;-76
2022/05/07 03:26:46;;;;;;;28.13;22.08;;;;;;;;;;5039501;28;20033;-77
2022/05/07 03:29:12;;;;;;;27.33;22.73;;;;;;;;;;5034484;28;20193;-77
2022/05/07 03:31:39;;;;;;;28.25;21.45;;;;;;;;;;5044486;28;20025;-77
2022/05/07 03:34:05;;;;;;;29.52;22.17;;;;;;;;;;5044511;28;20462;-77
2022/05/07 03:36:31;;;;;;;33.05;22.40;;;;;;;;;;5043089;28;20106;-77
2022/05/07 03:38:57;;;;;;;27.17;22.08;;;;;;;;;;5050067;28;20100;-77
2022/05/07 03:41:23;;;;;;;27.15;22.92;;;;;;;;;;5049491;28;20530;-77
2022/05/07 03:43:50;;;;;;;28.67;20.83;;;;;;;;;;5051446;28;20107;-77
2022/05/07 03:46:16;;;;;;;27.85;20.88;;;;;;;;;;5052015;28;20029;-77
2022/05/07 03:48:42;;;;;;;29.50;22.77;;;;;;;;;;5050408;28;20037;-77
2022/05/07 03:51:08;;;;;;;29.73;22.48;;;;;;;;;;5049785;28;20029;-77
2022/05/07 03:53:36;;;;;;;25.55;22.05;;;;;;;;;;5050673;28;20037;-77
2022/05/07 03:56:06;;;;;;;27.20;22.55;;;;;;;;;;5049889;28;20029;-77
2022/05/07 03:58:32;;;;;;;29.50;21.50;;;;;;;;;;5048962;28;20025;-77
2022/05/07 04:00:58;;;;;;;25.02;20.55;;;;;;;;;;5048380;28;20037;-78
2022/05/07 04:03:25;;;;;;;27.85;21.48;;;;;;;;;;5050267;28;20492;-78
2022/05/07 04:05:51;;;;;;;24.92;21.10;;;;;;;;;;5049063;28;20039;-77
2022/05/07 04:08:19;;;;;;;29.42;22.77;;;;;;;;;;5050617;28;20103;-77
2022/05/07 04:10:45;;;;;;;25.40;20.15;;;;;;;;;;5033154;28;20037;-77
2022/05/07 04:13:12;;;;;;;22.90;19.77;;;;;;;;;;5047886;28;20381;-76
2022/05/07 04:15:38;;;;;;;24.85;19.25;;;;;;;;;;5051117;28;20425;-77
2022/05/07 04:18:05;;;;;;;24.95;19.80;;;;;;;;;;5044627;28;20485;-77
2022/05/07 04:20:31;;;;;;;26.02;20.35;;;;;;;;;;5040136;28;20029;-77
2022/05/07 04:22:58;;;;;;;25.88;21.23;;;;;;;;;;5051087;28;20021;-76
2022/05/07 04:25:24;;;;;;;23.60;19.70;;;;;;;;;;5024832;28;20041;-76
2022/05/07 04:27:50;;;;;;;24.55;20.98;;;;;;;;;;5049449;28;20029;-77
2022/05/07 04:30:16;;;;;;;26.67;21.63;;;;;;;;;;5017889;28;20143;-76
2022/05/07 04:32:43;;;;;;;31.23;22.10;;;;;;;;;;5044943;28;20075;-76
2022/05/07 04:35:09;;;;;;;23.75;19.88;;;;;;;;;;5051659;28;20029;-76
2022/05/07 04:37:35;;;;;;;26.88;21.27;;;;;;;;;;5036202;28;20033;-77
2022/05/07 04:40:01;;;;;;;28.98;21.23;;;;;;;;;;5049638;28;20028;-77
2022/05/07 04:42:27;;;;;;;26.02;21.70;;;;;;;;;;5046436;28;20154;-77
2022/05/07 04:44:53;;;;;;;27.70;20.75;;;;;;;;;;5050081;28;20025;-77
2022/05/07 04:47:19;;;;;;;23.67;20.50;;;;;;;;;;5054398;28;20033;-77
2022/05/07 04:49:45;;;;;;;27.73;20.55;;;;;;;;;;5046072;28;20033;-77
2022/05/07 04:52:11;;;;;;;26.98;21.92;;;;;;;;;;5049572;28;20064;-77
2022/05/07 04:54:38;;;;;;;24.38;20.20;;;;;;;;;;5046377;28;20028;-77
2022/05/07 04:57:04;;;;;;;27.23;22.58;;;;;;;;;;5027914;28;20485;-77
2022/05/07 04:59:30;;;;;;;27.92;21.35;;;;;;;;;;5045000;28;20123;-76
2022/05/07 05:01:56;;;;;;;28.08;22.63;;;;;;;;;;5046863;28;20087;-77
2022/05/07 05:04:23;;;;;;;24.58;21.77;;;;;;;;;;5049718;28;20479;-77
2022/05/07 05:06:49;;;;;;;26.15;22.65;;;;;;;;;;5037924;28;20381;-77
2022/05/07 05:09:15;;;;;;;31.70;22.30;;;;;;;;;;5047629;28;20474;-77
2022/05/07 05:11:41;;;;;;;26.83;21.35;;;;;;;;;;5050739;28;20051;-76
2022/05/07 05:16:53;;;;;;;32.83;22.45;;;;;;;;;;5049162;28;20048;-76
2022/05/07 05:19:19;;;;;;;28.58;23.13;;;;;;;;;;5048548;28;20485;-76
2022/05/07 05:21:45;;;;;;;32.90;23.02;;;;;;;;;;5048666;28;20070;-76
2022/05/07 05:24:12;;;;;;;24.92;20.95;;;;;;;;;;5047911;28;20037;-76
2022/05/07 05:26:38;;;;;;;25.33;21.15;;;;;;;;;;5046321;28;20060;-76
2022/05/07 05:29:04;;;;;;;24.77;19.58;;;;;;;;;;5049483;28;20071;-77
2022/05/07 05:31:30;;;;;;;30.08;22.08;;;;;;;;;;5053486;28;20037;-76
2022/05/07 05:33:59;;;;;;;26.42;20.67;;;;;;;;;;5049147;28;20044;-78
2022/05/07 05:36:30;;;;;;;30.75;22.40;;;;;;;;;;5038457;28;20080;-76
2022/05/07 05:38:56;;;;;;;29.15;22.20;;;;;;;;;;5045133;28;20588;-76
2022/05/07 05:41:22;;;;;;;27.50;23.02;;;;;;;;;;5032295;28;20021;-76
2022/05/07 05:43:48;;;;;;;27.20;21.83;;;;;;;;;;5045336;28;20017;-76
2022/05/07 05:46:14;;;;;;;26.23;21.33;;;;;;;;;;5052142;28;20031;-76
2022/05/07 05:48:40;;;;;;;26.48;21.40;;;;;;;;;;5049243;28;20127;-75
2022/05/07 05:51:07;;;;;;;26.60;22.58;;;;;;;;;;5048055;28;20029;-76
2022/05/07 05:53:33;;;;;;;37.45;24.13;;;;;;;;;;5044396;28;20128;-76
2022/05/07 05:56:00;;;;;;;25.38;22.17;;;;;;;;;;5050183;28;20045;-76
2022/05/07 05:58:32;;;;;;;28.42;22.30;;;;;;;;;;5042193;28;20033;-77
2022/05/07 06:00:59;;;;;;;31.23;22.05;;;;;;;;;;5051867;28;20024;-77
2022/05/07 06:03:25;;;;;;;29.10;22.40;;;;;;;;;;5048886;28;20399;-77
2022/05/07 06:05:51;;;;;;;27.38;22.60;;;;;;;;;;5045430;28;20052;-76
2022/05/07 06:08:17;;;;;;;27.55;22.00;;;;;;;;;;5048997;28;20049;-77
2022/05/07 06:10:43;;;;;;;31.58;21.30;;;;;;;;;;5046194;28;20078;-76
2022/05/07 06:13:10;;;;;;;26.73;21.85;;;;;;;;;;5046530;28;20445;-76
2022/05/07 06:15:36;;;;;;;25.27;22.05;;;;;;;;;;5024705;28;20114;-77
2022/05/07 06:18:02;;;;;;;25.60;22.30;;;;;;;;;;5048244;28;20033;-77
2022/05/07 06:20:28;;;;;;;25.15;19.83;;;;;;;;;;5021455;28;20465;-77
2022/05/07 06:22:58;;;;;;;22.98;20.38;;;;;;;;;;5050383;28;20068;-77
2022/05/07 06:28:09;;;;;;;29.30;22.42;;;;;;;;;;5049183;28;20103;-77
2022/05/07 06:30:35;;;;;;;23.60;19.92;;;;;;;;;;5050084;28;20040;-77
2022/05/07 06:33:01;;;;;;;25.35;21.13;;;;;;;;;;5053658;28;20033;-77
2022/05/07 06:35:28;;;;;;;25.25;19.48;;;;;;;;;;5049755;28;20039;-77
2022/05/07 06:37:54;;;;;;;24.88;21.27;;;;;;;;;;5053615;28;20147;-78
2022/05/07 06:40:20;;;;;;;28.25;19.75;;;;;;;;;;5049509;28;20183;-78
2022/05/07 06:42:46;;;;;;;24.35;20.77;;;;;;;;;;5052624;28;20032;-78
2022/05/07 06:45:13;;;;;;;24.42;21.15;;;;;;;;;;5048915;28;20493;-78
2022/05/07 06:47:39;;;;;;;25.10;20.95;;;;;;;;;;5044332;28;20037;-77
2022/05/07 06:50:05;;;;;;;25.83;20.38;;;;;;;;;;5047676;28;20033;-78
2022/05/07 06:52:31;;;;;;;26.00;20.90;;;;;;;;;;5053350;28;20033;-78
2022/05/07 06:54:57;;;;;;;23.30;20.35;;;;;;;;;;5046516;28;20045;-77
2022/05/07 06:57:24;;;;;;;21.02;18.67;;;;;;;;;;5053696;28;20044;-78
2022/05/07 06:59:50;;;;;;;26.65;22.33;;;;;;;;;;5042252;28;20021;-78
2022/05/07 07:02:16;;;;;;;24.65;21.80;;;;;;;;;;5061276;28;20036;-78
2022/05/07 07:04:42;;;;;;;26.67;21.02;;;;;;;;;;5043015;28;20029;-78
2022/05/07 07:07:08;;;;;;;26.25;22.30;;;;;;;;;;5046169;28;20107;-77
2022/05/07 07:09:35;;;;;;;28.55;21.33;;;;;;;;;;5047727;28;20068;-78
2022/05/07 07:12:01;;;;;;;26.20;22.67;;;;;;;;;;5029004;28;20045;-77
2022/05/07 07:14:27;;;;;;;25.88;21.60;;;;;;;;;;5045048;28;20024;-74
2022/05/07 07:16:54;;;;;;;26.58;21.85;;;;;;;;;;5050403;28;20084;-74
2022/05/07 07:19:20;;;;;;;34.75;22.77;;;;;;;;;;5052154;28;20099;-76
2022/05/07 07:21:49;;;;;;;24.58;20.75;;;;;;;;;;5022921;28;20378;-78
2022/05/07 07:24:15;;;;;;;28.38;24.23;;;;;;;;;;5053484;28;20041;-73
2022/05/07 07:26:41;;;;;;;32.42;25.40;;;;;;;;;;5056796;28;20372;-78
2022/05/07 07:29:07;;;;;;;32.58;24.63;;;;;;;;;;5052375;28;20045;-79
2022/05/07 07:31:34;;;;;;;35.22;26.33;;;;;;;;;;5043334;28;20041;-79
2022/05/07 07:34:01;;;;;;;33.03;25.35;;;;;;;;;;5034962;28;20053;-78
2022/05/07 07:36:27;;;;;;;43.10;28.05;;;;;;;;;;5031982;28;20033;-79
2022/05/07 07:38:53;;;;;;;33.63;24.88;;;;;;;;;;5048487;28;20055;-79
2022/05/07 07:41:19;;;;;;;35.17;26.10;;;;;;;;;;5043288;28;20040;-79
2022/05/07 07:43:45;;;;;;;36.40;26.63;;;;;;;;;;5038701;28;20033;-79
2022/05/07 07:48:58;;;;;;;38.05;26.50;;;;;;;;;;5043805;28;20130;-78
2022/05/07 07:51:24;;;;;;;34.95;26.63;;;;;;;;;;5038856;28;20024;-75
2022/05/07 07:53:50;;;;;;;32.50;26.40;;;;;;;;;;5048985;28;20476;-75
2022/05/07 07:56:16;;;;;;;40.55;27.58;;;;;;;;;;5038146;28;20087;-77
2022/05/07 07:58:42;;;;;;;32.83;23.52;;;;;;;;;;5046037;28;20035;-79
2022/05/07 08:01:08;;;;;;;35.60;27.30;;;;;;;;;;5050767;28;20033;-77
2022/05/07 08:03:34;;;;;;;35.45;27.48;;;;;;;;;;5054269;28;20366;-80
2022/05/07 08:06:01;;;;;;;41.70;27.67;;;;;;;;;;5044233;28;20049;-80
2022/05/07 08:14:13;;;;;;;37.67;26.20;;;;;;;;;;4980446;28;20029;-79
2022/05/07 08:16:39;;;;;;;33.92;25.13;;;;;;;;;;5047521;28;20065;-78
2022/05/07 08:19:06;;;;;;;34.65;24.75;;;;;;;;;;5052563;28;20465;-81
2022/05/07 08:21:32;;;;;;;41.53;30.92;;;;;;;;;;5039948;28;20037;-78
2022/05/07 08:23:59;;;;;;;44.13;31.75;;;;;;;;;;5049833;28;20103;-78
2022/05/07 08:26:25;;;;;;;41.42;26.08;;;;;;;;;;5044899;28;20033;-80
2022/05/07 08:28:52;;;;;;;35.90;25.50;;;;;;;;;;5053329;28;20045;-82
2022/05/07 08:31:23;;;;;;;33.42;26.58;;;;;;;;;;5065345;28;20067;-81
2022/05/07 08:33:49;;;;;;;36.05;26.85;;;;;;;;;;5056067;28;20044;-81
2022/05/07 08:36:15;;;;;;;55.03;26.80;;;;;;;;;;5052046;28;20017;-79
2022/05/07 08:38:42;;;;;;;33.55;26.02;;;;;;;;;;5050214;28;20033;-79
2022/05/07 08:41:10;;;;;;;30.92;24.48;;;;;;;;;;5054644;28;20028;-80
2022/05/07 08:43:37;;;;;;;35.92;26.40;;;;;;;;;;5053351;28;20041;-80
2022/05/07 08:46:08;;;;;;;38.45;26.65;;;;;;;;;;5056917;28;20057;-80
2022/05/07 08:48:35;;;;;;;38.95;26.80;;;;;;;;;;5042825;28;20029;-82
2022/05/07 08:51:01;;;;;;;34.33;26.05;;;;;;;;;;5038287;28;20025;-80
2022/05/07 08:53:30;;;;;;;32.60;25.15;;;;;;;;;;5062389;28;20033;-82
2022/05/07 08:55:56;;;;;;;33.65;24.48;;;;;;;;;;5038425;28;20158;-82
2022/05/07 08:58:22;;;;;;;37.00;26.98;;;;;;;;;;5056092;28;20041;-82
2022/05/07 09:00:48;;;;;;;35.78;25.73;;;;;;;;;;5059629;28;20033;-81
2022/05/07 09:03:15;;;;;;;36.40;26.65;;;;;;;;;;5047888;28;20044;-80
2022/05/07 09:05:41;;;;;;;34.22;24.42;;;;;;;;;;5048589;28;20055;-77
2022/05/07 09:08:07;;;;;;;38.40;25.88;;;;;;;;;;5045958;28;20037;-79
2022/05/07 09:10:34;;;;;;;36.90;26.67;;;;;;;;;;5046870;28;20061;-78
2022/05/07 09:13:16;;;;;;;36.55;26.42;;;;;;;;;;5046034;28;20095;-79
2022/05/07 09:15:50;;;;;;;38.85;25.90;;;;;;;;;;5044057;28;20142;-79
2022/05/07 09:18:17;;;;;;;39.08;29.17;;;;;;;;;;5046543;28;20045;-78
2022/05/07 09:20:43;;;;;;;45.50;30.08;;;;;;;;;;5037714;28;20499;-78
2022/05/07 09:23:10;;;;;;;50.15;33.15;;;;;;;;;;5040059;28;20041;-77
2022/05/07 09:25:44;;;;;;;48.03;31.45;;;;;;;;;;5034505;28;20022;-79
2022/05/07 09:28:10;;;;;;;51.35;32.92;;;;;;;;;;5025225;28;20048;-78
2022/05/07 09:30:38;;;;;;;45.60;33.30;;;;;;;;;;5048657;28;20032;-77
2022/05/07 09:33:06;;;;;;;52.55;32.85;;;;;;;;;;5047704;28;20112;-78
2022/05/07 09:35:50;;;;;;;44.65;31.00;;;;;;;;;;5048342;28;20065;-78
2022/05/07 09:38:16;;;;;;;45.60;31.02;;;;;;;;;;5037729;28;20052;-79
2022/05/07 09:40:43;;;;;;;42.95;30.27;;;;;;;;;;5030697;28;20107;-80
2022/05/07 09:43:10;;;;;;;42.97;30.25;;;;;;;;;;5027172;28;20037;-77
2022/05/07 09:45:37;;;;;;;41.28;29.45;;;;;;;;;;5047300;28;20053;-78
2022/05/07 09:48:04;;;;;;;39.15;29.00;;;;;;;;;;5048484;28;20029;-79
2022/05/07 09:58:31;;;;;;;32.53;22.23;;;;;;;;;;5049452;28;20151;-77
2022/05/07 10:01:16;;;;;;;32.33;22.13;;;;;;;;;;5028801;28;20036;-76
2022/05/07 10:03:48;;;;;;;27.08;17.30;;;;;;;;;;5043504;28;20076;-74
2022/05/07 10:06:17;;;;;;;28.80;19.20;;;;;;;;;;5050972;28;20028;-74
2022/05/07 10:09:06;;;;;;;34.72;22.38;;;;;;;;;;5049662;28;20064;-74
2022/05/07 10:11:32;;;;;;;34.10;22.23;;;;;;;;;;5042547;28;20112;-74
2022/05/07 10:13:58;;;;;;;31.95;22.70;;;;;;;;;;5033521;28;20112;-77
2022/05/07 10:16:29;;;;;;;34.65;23.33;;;;;;;;;;5062478;28;20115;-76
2022/05/07 10:18:55;;;;;;;38.08;27.90;;;;;;;;;;5038696;28;20033;-76
2022/05/07 10:21:24;;;;;;;37.75;25.55;;;;;;;;;;5038754;28;20128;-77
2022/05/07 10:23:50;;;;;;;34.15;23.00;;;;;;;;;;5045620;28;20069;-77
2022/05/07 10:26:16;;;;;;;34.35;23.40;;;;;;;;;;5051492;28;20087;-77
2022/05/07 10:28:42;;;;;;;35.22;24.50;;;;;;;;;;5043596;28;20029;-77
2022/05/07 10:31:20;;;;;;;34.05;22.40;;;;;;;;;;5041745;28;20091;-77
2022/05/07 10:33:47;;;;;;;35.08;20.52;;;;;;;;;;5046119;28;20166;-76
2022/05/07 10:36:14;;;;;;;32.97;23.98;;;;;;;;;;5032416;28;20034;-76
2022/05/07 10:38:42;;;;;;;40.83;28.10;;;;;;;;;;5048528;28;20029;-77
2022/05/07 10:41:14;;;;;;;44.83;30.55;;;;;;;;;;5043118;28;20040;-78
2022/05/07 10:43:42;;;;;;;;;;;;;;;;;;5046287;28;20122;-75
2022/05/07 10:46:08;;;;;;;46.00;32.20;;;;;;;;;;5051584;28;19919;-77
2022/05/07 10:48:44;;;;;;;51.53;33.50;;;;;;;;;;5043053;28;20029;-75
2022/05/07 10:51:37;;;;;;;55.53;36.67;;;;;;;;;;5048403;28;20104;-76
2022/05/07 10:54:19;;;;;;;50.03;33.63;;;;;;;;;;5050513;28;20124;-75
2022/05/07 10:56:45;;;;;;;;;;;;;;;;;;5051328;28;20107;-74
2022/05/07 10:59:11;;;;;;;52.78;35.78;;;;;;;;;;5049752;28;19931;-75
2022/05/07 11:01:38;;;;;;;52.20;35.60;;;;;;;;;;5047693;28;20083;-75
2022/05/07 11:04:08;;;;;;;49.00;32.47;;;;;;;;;;5052805;28;20025;-74
2022/05/07 11:06:45;;;;;;;49.92;33.50;;;;;;;;;;5046816;28;20029;-74
2022/05/07 11:09:18;;;;;;;48.55;32.53;;;;;;;;;;5051487;28;20049;-74
2022/05/07 11:11:45;;;;;;;48.25;33.33;;;;;;;;;;5036664;28;20027;-76
2022/05/07 11:14:20;;;;;;;47.42;32.80;;;;;;;;;;5038742;28;20075;-75
2022/05/07 11:16:46;;;;;;;55.03;34.25;;;;;;;;;;5045283;28;20040;-74
2022/05/07 11:19:23;;;;;;;37.72;25.77;;;;;;;;;;5033392;28;20032;-76
2022/05/07 11:21:52;;;;;;;34.63;24.65;;;;;;;;;;5046997;28;20384;-75
2022/05/07 11:24:20;;;;;;;30.83;22.50;;;;;;;;;;5027748;28;20034;-74
2022/05/07 11:26:49;;;;;;;29.60;22.02;;;;;;;;;;5045500;28;20072;-74
2022/05/07 11:29:15;;;;;;;35.67;21.25;;;;;;;;;;5044925;28;20454;-74
2022/05/07 11:31:41;;;;;;;29.35;19.35;;;;;;;;;;5046272;28;20904;-75
2022/05/07 11:34:08;;;;;;;27.17;19.45;;;;;;;;;;5049581;28;20029;-75
2022/05/07 11:36:35;;;;;;;24.50;17.30;;;;;;;;;;5050938;28;20800;-74
2022/05/07 11:39:03;;;;;;;27.25;16.35;;;;;;;;;;5050811;28;20032;-74
2022/05/07 11:41:29;;;;;;;22.60;15.75;;;;;;;;;;5052882;28;20029;-75
2022/05/07 11:46:50;;;;;;;19.73;14.82;;;;;;;;;;5057545;28;20048;-74
2022/05/07 11:49:27;;;;;;;17.95;12.70;;;;;;;;;;5051324;28;20058;-75
2022/05/07 11:52:03;;;;;;;17.40;12.05;;;;;;;;;;5052198;28;20033;-74
2022/05/07 11:54:29;;;;;;;13.77;10.43;;;;;;;;;;5051303;28;20439;-74
2022/05/07 11:56:56;;;;;;;14.15;10.35;;;;;;;;;;5040214;28;20033;-73
2022/05/07 11:59:22;;;;;;;17.42;10.00;;;;;;;;;;5049610;28;20130;-74
2022/05/07 12:01:49;;;;;;;15.93;10.52;;;;;;;;;;5066438;28;20029;-75
2022/05/07 12:04:15;;;;;;;14.65;9.73;;;;;;;;;;5056435;28;20389;-74
2022/05/07 12:06:41;;;;;;;13.38;10.27;;;;;;;;;;5050165;28;20404;-74
2022/05/07 12:09:15;;;;;;;13.93;9.70;;;;;;;;;;5029858;28;20064;-74
2022/05/07 12:11:44;;;;;;;12.90;8.80;;;;;;;;;;5047177;28;20017;-75
2022/05/07 12:14:10;;;;;;;14.52;9.65;;;;;;;;;;5050669;28;20029;-75
2022/05/07 12:19:31;;;;;;;14.65;10.00;;;;;;;;;;5048405;28;20082;-75
2022/05/07 12:30:13;;;;;;;15.18;10.50;;;;;;;;;;5041518;28;20049;-74
2022/05/07 12:32:46;;;;;;;15.70;10.68;;;;;;;;;;5052644;28;20074;-74
2022/05/07 12:35:12;;;;;;;15.25;11.00;;;;;;;;;;5037801;28;20079;-74
2022/05/07 12:37:39;;;;;;;17.67;11.80;;;;;;;;;;5051700;28;20035;-74
2022/05/07 12:40:07;;;;;;;14.68;10.77;;;;;;;;;;5050246;28;20493;-74
2022/05/07 12:42:34;;;;;;;16.33;11.48;;;;;;;;;;5052676;28;20025;-74
2022/05/07 12:45:01;;;;;;;12.88;9.35;;;;;;;;;;5023493;28;20042;-75
2022/05/07 12:47:28;;;;;;;12.15;8.73;;;;;;;;;;5057963;28;20037;-74
2022/05/07 12:49:54;;;;;;;11.60;8.45;;;;;;;;;;5047934;28;20037;-74
2022/05/07 12:52:22;;;;;;;15.98;8.48;;;;;;;;;;5014686;28;20458;-75
2022/05/07 12:54:48;;;;;;;13.13;8.25;;;;;;;;;;5048487;28;20452;-74
2022/05/07 12:57:14;;;;;;;11.05;7.00;;;;;;;;;;5032176;28;20082;-74
2022/05/07 12:59:41;;;;;;;11.80;7.65;;;;;;;;;;5049945;28;20025;-75
2022/05/07 13:02:08;;;;;;;13.05;7.47;;;;;;;;;;5046521;28;20052;-74
2022/05/07 13:04:35;;;;;;;9.10;6.85;;;;;;;;;;5045024;28;20120;-75
2022/05/07 13:07:01;;;;;;;9.50;7.10;;;;;;;;;;5050462;28;20107;-75
2022/05/07 13:09:27;;;;;;;10.57;6.68;;;;;;;;;;5049764;28;20205;-75
2022/05/07 13:11:53;;;;;;;10.93;7.35;;;;;;;;;;5046004;28;20406;-75
2022/05/07 13:14:20;;;;;;;10.60;7.60;;;;;;;;;;5026154;28;20090;-75
2022/05/07 13:16:48;;;;;;;11.48;8.27;;;;;;;;;;5044123;28;20041;-74
2022/05/07 13:19:14;;;;;;;11.00;7.32;;;;;;;;;;5029742;28;20056;-74
2022/05/07 13:21:42;;;;;;;9.63;6.25;;;;;;;;;;5025403;28;20034;-74
2022/05/07 13:24:11;;;;;;;7.85;6.20;;;;;;;;;;5028818;28;20152;-74
2022/05/07 13:26:37;;;;;;;8.07;6.45;;;;;;;;;;5030669;28;20180;-74
2022/05/07 13:29:04;;;;;;;8.00;6.32;;;;;;;;;;5032972;28;20060;-74
2022/05/07 13:31:31;;;;;;;11.70;7.68;;;;;;;;;;5022942;28;20037;-74
2022/05/07 13:33:57;;;;;;;9.88;7.07;;;;;;;;;;5013473;28;20029;-74
2022/05/07 13:36:23;;;;;;;10.73;6.65;;;;;;;;;;5031326;28;20120;-74
2022/05/07 13:38:49;;;;;;;10.35;6.85;;;;;;;;;;5046579;28;20045;-74
2022/05/07 13:41:18;;;;;;;6.85;5.85;;;;;;;;;;5017019;28;20120;-74
2022/05/07 13:43:45;;;;;;;9.13;7.15;;;;;;;;;;5046466;28;20112;-74
2022/05/07 13:46:11;;;;;;;8.43;6.20;;;;;;;;;;5026073;28;20085;-74
2022/05/07 13:48:37;;;;;;;7.70;5.93;;;;;;;;;;5007750;28;20107;-74
2022/05/07 13:51:06;;;;;;;15.25;5.85;;;;;;;;;;5015923;28;20034;-73
2022/05/07 13:53:33;;;;;;;7.43;5.65;;;;;;;;;;5015316;28;20034;-73
2022/05/07 13:55:59;;;;;;;9.07;5.30;;;;;;;;;;5047588;28;20448;-73
2022/05/07 13:58:26;;;;;;;8.55;5.80;;;;;;;;;;5018198;28;20160;-73
2022/05/07 14:00:52;;;;;;;8.18;5.82;;;;;;;;;;5033255;28;20084;-74
2022/05/07 14:03:18;;;;;;;10.02;5.40;;;;;;;;;;5034267;28;20045;-74
2022/05/07 14:05:44;;;;;;;8.98;5.63;;;;;;;;;;5033300;28;20373;-74
2022/05/07 14:08:11;;;;;;;9.45;5.38;;;;;;;;;;5035494;28;20425;-74
2022/05/07 14:10:37;;;;;;;6.35;4.60;;;;;;;;;;5046108;28;20056;-73
2022/05/07 14:13:05;;;;;;;7.40;4.57;;;;;;;;;;5054278;28;20129;-74
2022/05/07 14:15:31;;;;;;;8.60;4.10;;;;;;;;;;5056093;28;20027;-74
2022/05/07 14:17:57;;;;;;;4.70;3.45;;;;;;;;;;5054130;28;20060;-74
2022/05/07 14:20:25;;;;;;;5.57;4.05;;;;;;;;;;5047471;28;20052;-73
2022/05/07 14:22:51;;;;;;;13.30;9.20;;;;;;;;;;5029701;28;20420;-74
2022/05/07 14:25:17;;;;;;;11.25;7.45;;;;;;;;;;5053446;28;20037;-74
2022/05/07 14:27:43;;;;;;;5.43;4.22;;;;;;;;;;5020068;28;20045;-75
2022/05/07 14:30:10;;;;;;;6.88;4.80;;;;;;;;;;5050514;28;20033;-74
2022/05/07 14:32:40;;;;;;;6.50;4.50;;;;;;;;;;5046001;28;20495;-74
2022/05/07 14:35:10;;;;;;;8.02;4.05;;;;;;;;;;5048028;28;20029;-75
2022/05/07 14:37:36;;;;;;;11.70;4.30;;;;;;;;;;5042962;28;20090;-75
2022/05/07 14:40:28;;;;;;;7.57;3.80;;;;;;;;;;5040348;28;20099;-76
2022/05/07 14:42:49;;;;;;;7.70;3.88;;;;;;;;;;5042769;28;20103;-76
2022/05/07 14:45:15;;;;;;;6.93;4.25;;;;;;;;;;5046959;28;20021;-77
2022/05/07 14:47:41;;;;;;;6.70;3.72;;;;;;;;;;5050564;28;20404;-77
2022/05/07 14:50:08;;;;;;;6.55;3.95;;;;;;;;;;5020777;28;20037;-78
2022/05/07 14:52:34;;;;;;;6.97;3.28;;;;;;;;;;5044724;28;20091;-77
2022/05/07 14:55:00;;;;;;;5.22;2.95;;;;;;;;;;5043124;28;20034;-75
2022/05/07 14:57:26;;;;;;;4.93;2.50;;;;;;;;;;5044846;28;20044;-74
2022/05/07 14:59:52;;;;;;;2.60;2.40;;;;;;;;;;5050798;28;20114;-75
2022/05/07 15:02:18;;;;;;;3.05;2.53;;;;;;;;;;5050155;28;20576;-74